sensor_id;sensor_type;location;lat;lon;timestamp;pressure;altitude;pressure_sealevel;temperature;humidity
4346;BME280;2186;49.866;7.986;2023-02-23T00:01:27;99892.31;;;7.96;100.00
4346;BME280;2186;49.866;7.986;2023-02-23T00:03:57;99891.50;;;7.92;100.00
4346;BME280;2186;49.866;7.986;2023-02-23T00:06:29;99890.47;;;7.99;100.00
4346;BME280;2186;49.866;7.986;2023-02-23T00:08:55;99897.53;;;7.99;100.00
4346;BME280;2186;49.866;7.986;2023-02-23T00:11:23;99895.69;;;8.02;100.00
4346;BME280;2186;49.866;7.986;2023-02-23T00:13:50;99897.50;;;8.00;100.00
4346;BME280;2186;49.866;7.986;2023-02-23T00:16:19;99888.81;;;7.94;100.00
4346;BME280;2186;49.866;7.986;2023-02-23T00:18:50;99894.91;;;7.99;100.00
4346;BME280;2186;49.866;7.986;2023-02-23T00:21:22;99890.75;;;7.87;100.00
4346;BME280;2186;49.866;7.986;2023-02-23T00:23:52;99896.13;;;7.84;100.00
4346;BME280;2186;49.866;7.986;2023-02-23T00:26:20;99886.34;;;7.88;100.00
4346;BME280;2186;49.866;7.986;2023-02-23T00:28:49;99885.34;;;7.92;100.00
4346;BME280;2186;49.866;7.986;2023-02-23T00:31:19;99886.91;;;8.00;100.00
4346;BME280;2186;49.866;7.986;2023-02-23T00:33:52;99889.44;;;8.05;100.00
4346;BME280;2186;49.866;7.986;2023-02-23T00:36:26;99890.22;;;8.10;100.00
4346;BME280;2186;49.866;7.986;2023-02-23T00:38:58;99883.19;;;8.09;100.00
4346;BME280;2186;49.866;7.986;2023-02-23T00:41:28;99887.53;;;8.12;100.00
4346;BME280;2186;49.866;7.986;2023-02-23T00:43:57;99888.31;;;8.15;100.00
4346;BME280;2186;49.866;7.986;2023-02-23T00:46:27;99881.97;;;8.21;100.00
4346;BME280;2186;49.866;7.986;2023-02-23T00:48:56;99879.91;;;8.32;100.00
4346;BME280;2186;49.866;7.986;2023-02-23T00:51:24;99877.44;;;8.26;100.00
4346;BME280;2186;49.866;7.986;2023-02-23T00:53:59;99882.75;;;8.26;100.00
4346;BME280;2186;49.866;7.986;2023-02-23T00:56:26;99882.69;;;8.27;100.00
4346;BME280;2186;49.866;7.986;2023-02-23T00:58:54;99880.00;;;8.29;100.00
4346;BME280;2186;49.866;7.986;2023-02-23T01:01:21;99885.25;;;8.30;100.00
4346;BME280;2186;49.866;7.986;2023-02-23T01:03:48;99878.13;;;8.32;100.00
4346;BME280;2186;49.866;7.986;2023-02-23T01:06:16;99869.38;;;8.30;100.00
4346;BME280;2186;49.866;7.986;2023-02-23T01:08:45;99882.63;;;8.30;100.00
4346;BME280;2186;49.866;7.986;2023-02-23T01:11:19;99880.84;;;8.31;100.00
4346;BME280;2186;49.866;7.986;2023-02-23T01:13:47;99877.31;;;8.30;100.00
4346;BME280;2186;49.866;7.986;2023-02-23T01:16:17;99879.00;;;8.36;100.00
4346;BME280;2186;49.866;7.986;2023-02-23T01:18:44;99879.88;;;8.35;100.00
4346;BME280;2186;49.866;7.986;2023-02-23T01:21:38;99879.00;;;8.33;100.00
4346;BME280;2186;49.866;7.986;2023-02-23T01:24:06;99883.44;;;8.32;100.00
4346;BME280;2186;49.866;7.986;2023-02-23T01:26:35;99882.66;;;8.29;100.00
4346;BME280;2186;49.866;7.986;2023-02-23T01:29:05;99876.50;;;8.28;100.00
4346;BME280;2186;49.866;7.986;2023-02-23T01:31:34;99880.09;;;8.26;100.00
4346;BME280;2186;49.866;7.986;2023-02-23T01:34:02;99877.63;;;8.18;100.00
4346;BME280;2186;49.866;7.986;2023-02-23T01:36:33;99880.44;;;8.12;100.00
4346;BME280;2186;49.866;7.986;2023-02-23T01:38:59;99886.53;;;8.16;100.00
4346;BME280;2186;49.866;7.986;2023-02-23T01:41:27;99886.53;;;8.16;100.00
4346;BME280;2186;49.866;7.986;2023-02-23T01:43:57;99881.97;;;8.22;100.00
4346;BME280;2186;49.866;7.986;2023-02-23T01:46:24;99881.06;;;8.23;100.00
4346;BME280;2186;49.866;7.986;2023-02-23T01:48:52;99871.97;;;8.32;100.00
4346;BME280;2186;49.866;7.986;2023-02-23T01:51:25;99868.41;;;8.36;100.00
4346;BME280;2186;49.866;7.986;2023-02-23T01:54:21;99874.44;;;8.41;100.00
4346;BME280;2186;49.866;7.986;2023-02-23T01:56:48;99876.13;;;8.44;100.00
4346;BME280;2186;49.866;7.986;2023-02-23T01:59:37;99873.44;;;8.45;100.00
4346;BME280;2186;49.866;7.986;2023-02-23T02:02:04;99877.03;;;8.43;100.00
4346;BME280;2186;49.866;7.986;2023-02-23T02:04:33;99870.78;;;8.45;100.00
4346;BME280;2186;49.866;7.986;2023-02-23T02:07:11;99871.72;;;8.43;100.00
4346;BME280;2186;49.866;7.986;2023-02-23T02:09:40;99871.72;;;8.43;100.00
4346;BME280;2186;49.866;7.986;2023-02-23T02:12:26;99875.22;;;8.45;100.00
4346;BME280;2186;49.866;7.986;2023-02-23T02:14:53;99870.69;;;8.48;100.00
4346;BME280;2186;49.866;7.986;2023-02-23T02:17:53;99868.91;;;8.50;100.00
4346;BME280;2186;49.866;7.986;2023-02-23T02:26:23;99860.94;;;8.50;100.00
4346;BME280;2186;49.866;7.986;2023-02-23T02:42:58;99852.00;;;8.54;100.00
4346;BME280;2186;49.866;7.986;2023-02-23T02:45:38;99851.31;;;8.46;100.00
4346;BME280;2186;49.866;7.986;2023-02-23T02:48:14;99854.94;;;8.44;100.00
4346;BME280;2186;49.866;7.986;2023-02-23T02:50:48;99856.72;;;8.43;100.00
4346;BME280;2186;49.866;7.986;2023-02-23T02:53:30;99847.00;;;8.44;100.00
4346;BME280;2186;49.866;7.986;2023-02-23T02:56:01;99849.63;;;8.44;100.00
4346;BME280;2186;49.866;7.986;2023-02-23T02:58:31;99841.78;;;8.41;100.00
4346;BME280;2186;49.866;7.986;2023-02-23T03:01:05;99846.16;;;8.42;100.00
4346;BME280;2186;49.866;7.986;2023-02-23T03:03:51;99843.44;;;8.45;100.00
4346;BME280;2186;49.866;7.986;2023-02-23T03:06:46;99843.28;;;8.49;100.00
4346;BME280;2186;49.866;7.986;2023-02-23T03:09:54;99834.47;;;8.49;100.00
4346;BME280;2186;49.866;7.986;2023-02-23T03:12:50;99843.53;;;8.42;100.00
4346;BME280;2186;49.866;7.986;2023-02-23T03:21:50;99845.25;;;8.43;100.00
4346;BME280;2186;49.866;7.986;2023-02-23T03:27:41;99839.22;;;8.38;100.00
4346;BME280;2186;49.866;7.986;2023-02-23T03:30:38;99842.75;;;8.38;100.00
4346;BME280;2186;49.866;7.986;2023-02-23T03:34:06;99849.81;;;8.38;100.00
4346;BME280;2186;49.866;7.986;2023-02-23T03:36:59;99845.25;;;8.43;100.00
4346;BME280;2186;49.866;7.986;2023-02-23T03:39:51;99850.56;;;8.43;100.00
4346;BME280;2186;49.866;7.986;2023-02-23T03:42:39;99848.00;;;8.40;100.00
4346;BME280;2186;49.866;7.986;2023-02-23T03:45:26;99853.38;;;8.37;100.00
4346;BME280;2186;49.866;7.986;2023-02-23T03:48:14;99853.19;;;8.43;100.00
4346;BME280;2186;49.866;7.986;2023-02-23T03:51:05;99854.09;;;8.42;100.00
4346;BME280;2186;49.866;7.986;2023-02-23T03:54:01;99847.22;;;8.36;100.00
4346;BME280;2186;49.866;7.986;2023-02-23T03:56:50;99848.94;;;8.37;100.00
4346;BME280;2186;49.866;7.986;2023-02-23T03:59:44;99848.91;;;8.39;100.00
4346;BME280;2186;49.866;7.986;2023-02-23T04:02:33;99848.84;;;8.40;100.00
4346;BME280;2186;49.866;7.986;2023-02-23T04:05:19;99858.53;;;8.41;100.00
4346;BME280;2186;49.866;7.986;2023-02-23T04:08:07;99855.81;;;8.44;100.00
4346;BME280;2186;49.866;7.986;2023-02-23T04:11:11;99859.38;;;8.43;100.00
4346;BME280;2186;49.866;7.986;2023-02-23T04:14:00;99853.16;;;8.44;100.00
4346;BME280;2186;49.866;7.986;2023-02-23T04:16:29;99857.44;;;8.48;100.00
4346;BME280;2186;49.866;7.986;2023-02-23T04:18:57;99856.53;;;8.49;100.00
4346;BME280;2186;49.866;7.986;2023-02-23T04:21:24;99861.78;;;8.52;100.00
4346;BME280;2186;49.866;7.986;2023-02-23T04:23:50;99858.16;;;8.55;100.00
4346;BME280;2186;49.866;7.986;2023-02-23T04:26:17;99859.09;;;8.54;100.00
4346;BME280;2186;49.866;7.986;2023-02-23T04:28:43;99859.03;;;8.55;100.00
4346;BME280;2186;49.866;7.986;2023-02-23T04:31:10;99861.72;;;8.54;100.00
4346;BME280;2186;49.866;7.986;2023-02-23T04:33:36;99867.03;;;8.54;100.00
4346;BME280;2186;49.866;7.986;2023-02-23T04:36:03;99869.72;;;8.52;100.00
4346;BME280;2186;49.866;7.986;2023-02-23T04:38:29;99870.53;;;8.54;100.00
4346;BME280;2186;49.866;7.986;2023-02-23T04:40:56;99872.38;;;8.52;100.00
4346;BME280;2186;49.866;7.986;2023-02-23T04:43:23;99864.47;;;8.49;100.00
4346;BME280;2186;49.866;7.986;2023-02-23T04:45:49;99870.72;;;8.47;100.00
4346;BME280;2186;49.866;7.986;2023-02-23T04:48:15;99871.69;;;8.44;100.00
4346;BME280;2186;49.866;7.986;2023-02-23T04:50:42;99873.44;;;8.45;100.00
4346;BME280;2186;49.866;7.986;2023-02-23T04:53:08;99870.03;;;8.40;100.00
4346;BME280;2186;49.866;7.986;2023-02-23T04:55:35;99867.25;;;8.45;100.00
4346;BME280;2186;49.866;7.986;2023-02-23T04:58:02;99876.13;;;8.44;100.00
4346;BME280;2186;49.866;7.986;2023-02-23T05:00:28;99869.97;;;8.43;100.00
4346;BME280;2186;49.866;7.986;2023-02-23T05:02:55;99866.44;;;8.43;100.00
4346;BME280;2186;49.866;7.986;2023-02-23T05:05:22;99872.75;;;8.39;100.00
4346;BME280;2186;49.866;7.986;2023-02-23T05:07:50;99870.13;;;8.37;100.00
4346;BME280;2186;49.866;7.986;2023-02-23T05:10:16;99866.63;;;8.33;100.00
4346;BME280;2186;49.866;7.986;2023-02-23T05:12:42;99867.69;;;8.28;100.00
4346;BME280;2186;49.866;7.986;2023-02-23T05:15:09;99871.94;;;8.33;100.00
4346;BME280;2186;49.866;7.986;2023-02-23T05:17:37;99871.19;;;8.28;100.00
4346;BME280;2186;49.866;7.986;2023-02-23T05:20:05;99871.16;;;8.30;100.00
4346;BME280;2186;49.866;7.986;2023-02-23T05:22:31;99875.72;;;8.25;100.00
4346;BME280;2186;49.866;7.986;2023-02-23T05:24:57;99869.47;;;8.27;100.00
4346;BME280;2186;49.866;7.986;2023-02-23T05:27:24;99880.91;;;8.28;100.00
4346;BME280;2186;49.866;7.986;2023-02-23T05:29:50;99884.41;;;8.30;100.00
4346;BME280;2186;49.866;7.986;2023-02-23T05:32:17;99878.19;;;8.31;100.00
4346;BME280;2186;49.866;7.986;2023-02-23T05:34:43;99873.75;;;8.31;100.00
4346;BME280;2186;49.866;7.986;2023-02-23T05:37:10;99871.25;;;8.27;100.00
4346;BME280;2186;49.866;7.986;2023-02-23T05:39:36;99875.53;;;8.31;100.00
4346;BME280;2186;49.866;7.986;2023-02-23T05:42:03;99875.72;;;8.25;100.00
4346;BME280;2186;49.866;7.986;2023-02-23T05:44:29;99876.34;;;8.35;100.00
4346;BME280;2186;49.866;7.986;2023-02-23T05:46:56;99881.66;;;8.33;100.00
4346;BME280;2186;49.866;7.986;2023-02-23T05:49:22;99880.91;;;8.28;100.00
4346;BME280;2186;49.866;7.986;2023-02-23T05:51:49;99885.34;;;8.27;100.00
4346;BME280;2186;49.866;7.986;2023-02-23T05:54:15;99882.56;;;8.32;100.00
4346;BME280;2186;49.866;7.986;2023-02-23T05:56:42;99890.44;;;8.37;100.00
4346;BME280;2186;49.866;7.986;2023-02-23T05:59:08;99883.34;;;8.39;100.00
4346;BME280;2186;49.866;7.986;2023-02-23T06:01:35;99882.50;;;8.37;100.00
4346;BME280;2186;49.866;7.986;2023-02-23T06:04:01;99885.06;;;8.40;100.00
4346;BME280;2186;49.866;7.986;2023-02-23T06:06:31;99886.94;;;8.33;100.00
4346;BME280;2186;49.866;7.986;2023-02-23T06:08:57;99883.34;;;8.39;100.00
4346;BME280;2186;49.866;7.986;2023-02-23T06:11:23;99881.63;;;8.36;100.00
4346;BME280;2186;49.866;7.986;2023-02-23T06:13:50;99886.03;;;8.37;100.00
4346;BME280;2186;49.866;7.986;2023-02-23T06:16:17;99887.81;;;8.35;100.00
4346;BME280;2186;49.866;7.986;2023-02-23T06:18:44;99886.94;;;8.36;100.00
4346;BME280;2186;49.866;7.986;2023-02-23T06:21:10;99885.06;;;8.40;100.00
4346;BME280;2186;49.866;7.986;2023-02-23T06:23:37;99891.00;;;8.48;100.00
4346;BME280;2186;49.866;7.986;2023-02-23T06:26:04;99885.88;;;8.42;100.00
4346;BME280;2186;49.866;7.986;2023-02-23T06:28:30;99891.06;;;8.46;100.00
4346;BME280;2186;49.866;7.986;2023-02-23T06:30:57;99894.56;;;8.47;100.00
4346;BME280;2186;49.866;7.986;2023-02-23T06:33:24;99899.03;;;8.45;100.00
4346;BME280;2186;49.866;7.986;2023-02-23T06:35:51;99896.34;;;8.46;100.00
4346;BME280;2186;49.866;7.986;2023-02-23T06:38:18;99896.34;;;8.46;100.00
4346;BME280;2186;49.866;7.986;2023-02-23T06:40:44;99898.09;;;8.47;100.00
4346;BME280;2186;49.866;7.986;2023-02-23T06:43:11;99899.91;;;8.45;100.00
4346;BME280;2186;49.866;7.986;2023-02-23T06:45:37;99899.03;;;8.45;100.00
4346;BME280;2186;49.866;7.986;2023-02-23T06:48:04;99904.75;;;8.28;100.00
4346;BME280;2186;49.866;7.986;2023-02-23T06:50:32;99910.69;;;8.39;100.00
4346;BME280;2186;49.866;7.986;2023-02-23T06:52:58;99912.06;;;8.54;100.00
4346;BME280;2186;49.866;7.986;2023-02-23T06:55:25;99919.88;;;8.58;100.00
4346;BME280;2186;49.866;7.986;2023-02-23T06:57:51;99909.13;;;8.63;100.00
4346;BME280;2186;49.866;7.986;2023-02-23T07:00:20;99918.72;;;8.69;100.00
4346;BME280;2186;49.866;7.986;2023-02-23T07:02:46;99918.72;;;8.69;100.00
4346;BME280;2186;49.866;7.986;2023-02-23T07:05:13;99920.41;;;8.71;100.00
4346;BME280;2186;49.866;7.986;2023-02-23T07:07:39;99909.03;;;8.68;100.00
4346;BME280;2186;49.866;7.986;2023-02-23T07:10:06;99924.84;;;8.71;100.00
4346;BME280;2186;49.866;7.986;2023-02-23T07:12:33;99924.72;;;8.75;100.00
4346;BME280;2186;49.866;7.986;2023-02-23T07:14:59;99926.38;;;8.79;100.00
4346;BME280;2186;49.866;7.986;2023-02-23T07:17:26;99929.88;;;8.81;100.00
4346;BME280;2186;49.866;7.986;2023-02-23T07:19:52;99934.25;;;8.82;100.00
4346;BME280;2186;49.866;7.986;2023-02-23T07:22:19;99938.50;;;8.88;100.00
4346;BME280;2186;49.866;7.986;2023-02-23T07:24:45;99944.63;;;8.90;100.00
4346;BME280;2186;49.866;7.986;2023-02-23T07:27:12;99936.91;;;9.13;100.00
4346;BME280;2186;49.866;7.986;2023-02-23T07:29:38;99938.06;;;9.03;100.00
4346;BME280;2186;49.866;7.986;2023-02-23T07:32:04;99936.91;;;9.13;100.00
4346;BME280;2186;49.866;7.986;2023-02-23T07:34:31;99933.28;;;9.16;100.00
4346;BME280;2186;49.866;7.986;2023-02-23T07:36:57;99943.84;;;9.19;100.00
4346;BME280;2186;49.866;7.986;2023-02-23T07:39:24;99937.81;;;9.12;100.00
4346;BME280;2186;49.866;7.986;2023-02-23T07:41:50;99940.47;;;9.12;100.00
4346;BME280;2186;49.866;7.986;2023-02-23T07:44:17;99940.47;;;9.12;100.00
4346;BME280;2186;49.866;7.986;2023-02-23T07:46:44;99950.25;;;9.10;100.00
4346;BME280;2186;49.866;7.986;2023-02-23T07:49:11;99942.13;;;9.16;100.00
4346;BME280;2186;49.866;7.986;2023-02-23T07:51:39;99947.38;;;9.18;100.00
4346;BME280;2186;49.866;7.986;2023-02-23T07:54:05;99944.56;;;9.24;100.00
4346;BME280;2186;49.866;7.986;2023-02-23T07:56:32;99952.28;;;9.33;100.00
4346;BME280;2186;49.866;7.986;2023-02-23T07:58:59;99954.72;;;9.39;100.00
4346;BME280;2186;49.866;7.986;2023-02-23T08:01:25;99955.50;;;9.43;100.00
4346;BME280;2186;49.866;7.986;2023-02-23T08:03:52;99959.03;;;9.43;100.00
4346;BME280;2186;49.866;7.986;2023-02-23T08:06:18;99966.72;;;9.53;100.00
4346;BME280;2186;49.866;7.986;2023-02-23T08:08:45;99955.25;;;9.52;100.00
4346;BME280;2186;49.866;7.986;2023-02-23T08:11:12;99963.06;;;9.57;100.00
4346;BME280;2186;49.866;7.986;2023-02-23T08:13:38;99962.41;;;9.78;100.00
4346;BME280;2186;49.866;7.986;2023-02-23T08:16:05;99962.66;;;9.98;100.00
4346;BME280;2186;49.866;7.986;2023-02-23T08:18:32;99971.09;;;9.83;100.00
4346;BME280;2186;49.866;7.986;2023-02-23T08:21:00;99963.78;;;9.91;100.00
4346;BME280;2186;49.866;7.986;2023-02-23T08:23:29;99961.25;;;9.87;100.00
4346;BME280;2186;49.866;7.986;2023-02-23T08:25:56;99964.88;;;9.84;100.00
4346;BME280;2186;49.866;7.986;2023-02-23T08:28:23;99971.41;;;9.72;100.00
4346;BME280;2186;49.866;7.986;2023-02-23T08:30:50;99967.47;;;9.87;100.00
4346;BME280;2186;49.866;7.986;2023-02-23T08:33:17;99959.50;;;9.87;100.00
4346;BME280;2186;49.866;7.986;2023-02-23T08:35:43;99966.50;;;9.90;100.00
4346;BME280;2186;49.866;7.986;2023-02-23T08:38:10;99973.63;;;9.88;100.00
4346;BME280;2186;49.866;7.986;2023-02-23T08:40:37;99978.59;;;9.98;100.00
4346;BME280;2186;49.866;7.986;2023-02-23T08:43:03;99973.75;;;10.11;100.00
4346;BME280;2186;49.866;7.986;2023-02-23T08:45:29;99972.53;;;10.23;100.00
4346;BME280;2186;49.866;7.986;2023-02-23T08:47:56;99969.88;;;10.23;100.00
4346;BME280;2186;49.866;7.986;2023-02-23T08:50:23;99966.19;;;10.28;100.00
4346;BME280;2186;49.866;7.986;2023-02-23T08:52:53;99965.97;;;10.34;100.00
4346;BME280;2186;49.866;7.986;2023-02-23T08:55:19;99958.75;;;10.38;100.00
4346;BME280;2186;49.866;7.986;2023-02-23T08:57:46;99965.63;;;10.45;100.00
4346;BME280;2186;49.866;7.986;2023-02-23T09:00:13;99963.47;;;10.56;100.00
4346;BME280;2186;49.866;7.986;2023-02-23T09:02:43;99977.28;;;10.66;100.00
4346;BME280;2186;49.866;7.986;2023-02-23T09:05:10;99975.38;;;10.71;100.00
4346;BME280;2186;49.866;7.986;2023-02-23T09:07:38;99986.59;;;10.79;100.00
4346;BME280;2186;49.866;7.986;2023-02-23T09:10:05;99979.41;;;10.83;100.00
4346;BME280;2186;49.866;7.986;2023-02-23T09:12:32;99987.25;;;10.86;100.00
4346;BME280;2186;49.866;7.986;2023-02-23T09:14:58;99985.59;;;10.83;100.00
4346;BME280;2186;49.866;7.986;2023-02-23T09:17:25;99989.13;;;10.84;100.00
4346;BME280;2186;49.866;7.986;2023-02-23T09:19:52;99994.22;;;11.15;100.00
4346;BME280;2186;49.866;7.986;2023-02-23T09:22:18;99989.59;;;11.20;100.00
4346;BME280;2186;49.866;7.986;2023-02-23T09:24:45;99991.38;;;11.44;100.00
4346;BME280;2186;49.866;7.986;2023-02-23T09:27:11;99989.25;;;11.54;100.00
4346;BME280;2186;49.866;7.986;2023-02-23T09:29:38;99981.81;;;11.62;100.00
4346;BME280;2186;49.866;7.986;2023-02-23T09:32:09;99994.47;;;11.80;100.00
4346;BME280;2186;49.866;7.986;2023-02-23T09:34:35;99989.28;;;11.99;100.00
4346;BME280;2186;49.866;7.986;2023-02-23T09:37:03;99988.78;;;11.90;100.00
4346;BME280;2186;49.866;7.986;2023-02-23T09:39:30;99985.56;;;12.03;100.00
4346;BME280;2186;49.866;7.986;2023-02-23T09:45:19;99987.84;;;12.36;100.00
4346;BME280;2186;49.866;7.986;2023-02-23T09:48:11;99995.91;;;12.34;100.00
4346;BME280;2186;49.866;7.986;2023-02-23T09:50:41;99988.00;;;12.31;100.00
4346;BME280;2186;49.866;7.986;2023-02-23T09:53:23;100002.47;;;12.48;100.00
4346;BME280;2186;49.866;7.986;2023-02-23T09:55:54;99996.50;;;12.41;100.00
4346;BME280;2186;49.866;7.986;2023-02-23T09:58:26;99996.66;;;12.58;100.00
4346;BME280;2186;49.866;7.986;2023-02-23T10:01:47;100001.63;;;12.67;100.00
4346;BME280;2186;49.866;7.986;2023-02-23T10:04:06;100007.84;;;12.88;100.00
4346;BME280;2186;49.866;7.986;2023-02-23T10:06:39;100007.63;;;12.72;100.00
4346;BME280;2186;49.866;7.986;2023-02-23T10:09:14;100004.59;;;12.82;100.00
4346;BME280;2186;49.866;7.986;2023-02-23T10:11:47;100006.66;;;12.75;100.00
4346;BME280;2186;49.866;7.986;2023-02-23T10:14:44;100012.00;;;12.75;100.00
4346;BME280;2186;49.866;7.986;2023-02-23T10:17:39;100015.81;;;12.90;100.00
4346;BME280;2186;49.866;7.986;2023-02-23T10:23:02;100017.13;;;13.00;100.00
4346;BME280;2186;49.866;7.986;2023-02-23T10:25:33;100013.38;;;12.84;100.00
4346;BME280;2186;49.866;7.986;2023-02-23T10:28:01;100015.53;;;12.75;100.00
4346;BME280;2186;49.866;7.986;2023-02-23T10:30:30;100022.59;;;12.77;100.00
4346;BME280;2186;49.866;7.986;2023-02-23T10:33:12;100020.22;;;12.69;100.00
4346;BME280;2186;49.866;7.986;2023-02-23T10:35:39;100017.84;;;12.83;100.00
4346;BME280;2186;49.866;7.986;2023-02-23T10:38:13;100020.78;;;12.77;100.00
4346;BME280;2186;49.866;7.986;2023-02-23T10:40:40;100024.13;;;12.82;100.00
4346;BME280;2186;49.866;7.986;2023-02-23T10:43:10;100026.44;;;12.69;100.00
4346;BME280;2186;49.866;7.986;2023-02-23T10:45:46;100021.97;;;12.70;100.00
4346;BME280;2186;49.866;7.986;2023-02-23T10:48:21;100029.13;;;12.48;100.00
4346;BME280;2186;49.866;7.986;2023-02-23T10:50:53;100032.69;;;12.46;100.00
4346;BME280;2186;49.866;7.986;2023-02-23T10:53:25;100030.47;;;12.58;100.00
4346;BME280;2186;49.866;7.986;2023-02-23T10:56:02;100035.19;;;12.51;100.00
4346;BME280;2186;49.866;7.986;2023-02-23T10:58:30;100031.72;;;12.49;100.00
4346;BME280;2186;49.866;7.986;2023-02-23T11:01:05;100033.41;;;12.52;100.00
4346;BME280;2186;49.866;7.986;2023-02-23T11:03:35;100028.34;;;12.44;100.00
4346;BME280;2186;49.866;7.986;2023-02-23T11:06:03;100030.84;;;12.49;100.00
4346;BME280;2186;49.866;7.986;2023-02-23T11:08:32;100027.88;;;12.56;100.00
4346;BME280;2186;49.866;7.986;2023-02-23T11:11:26;100026.50;;;12.68;100.00
4346;BME280;2186;49.866;7.986;2023-02-23T11:13:55;100023.41;;;12.57;100.00
4346;BME280;2186;49.866;7.986;2023-02-23T11:16:24;100029.22;;;12.66;100.00
4346;BME280;2186;49.866;7.986;2023-02-23T11:18:59;100026.72;;;12.84;100.00
4346;BME280;2186;49.866;7.986;2023-02-23T11:21:32;100023.63;;;12.72;100.00
4346;BME280;2186;49.866;7.986;2023-02-23T11:26:36;100023.28;;;13.02;100.00
4346;BME280;2186;49.866;7.986;2023-02-23T11:29:24;100020.63;;;13.02;100.00
4346;BME280;2186;49.866;7.986;2023-02-23T11:31:54;100026.69;;;13.05;99.78
4346;BME280;2186;49.866;7.986;2023-02-23T11:34:28;100018.97;;;13.20;99.49
4346;BME280;2186;49.866;7.986;2023-02-23T11:36:59;100017.19;;;13.20;99.51
4346;BME280;2186;49.866;7.986;2023-02-23T11:39:26;100011.69;;;13.23;99.66
4346;BME280;2186;49.866;7.986;2023-02-23T11:44:31;100006.06;;;13.09;99.18
4346;BME280;2186;49.866;7.986;2023-02-23T11:46:59;100010.75;;;13.24;98.87
4346;BME280;2186;49.866;7.986;2023-02-23T11:49:30;100007.00;;;13.28;99.28
4346;BME280;2186;49.866;7.986;2023-02-23T11:51:59;100005.97;;;13.72;97.88
4346;BME280;2186;49.866;7.986;2023-02-23T11:54:29;100006.53;;;13.59;97.13
4346;BME280;2186;49.866;7.986;2023-02-23T11:56:58;99998.13;;;13.48;97.73
4346;BME280;2186;49.866;7.986;2023-02-23T11:59:31;99991.94;;;13.48;97.30
4346;BME280;2186;49.866;7.986;2023-02-23T12:02:20;99994.84;;;13.81;96.31
4346;BME280;2186;49.866;7.986;2023-02-23T12:04:50;99988.41;;;13.66;96.33
4346;BME280;2186;49.866;7.986;2023-02-23T12:07:38;99982.50;;;13.78;96.65
4346;BME280;2186;49.866;7.986;2023-02-23T12:10:25;99989.50;;;13.81;94.31
4346;BME280;2186;49.866;7.986;2023-02-23T12:16:06;99975.34;;;13.60;95.24
4346;BME280;2186;49.866;7.986;2023-02-23T12:24:04;99969.06;;;13.80;94.18
4346;BME280;2186;49.866;7.986;2023-02-23T12:26:46;99970.44;;;13.88;94.72
4346;BME280;2186;49.866;7.986;2023-02-23T12:29:20;99974.22;;;13.84;94.12
4346;BME280;2186;49.866;7.986;2023-02-23T12:31:50;99965.59;;;13.97;92.97
4346;BME280;2186;49.866;7.986;2023-02-23T12:34:34;99973.53;;;13.79;93.08
4346;BME280;2186;49.866;7.986;2023-02-23T12:37:17;99965.03;;;13.71;92.85
4346;BME280;2186;49.866;7.986;2023-02-23T12:39:55;99963.22;;;13.90;93.99
4346;BME280;2186;49.866;7.986;2023-02-23T12:44:54;99960.41;;;14.12;92.67
4346;BME280;2186;49.866;7.986;2023-02-23T12:52:49;99963.66;;;13.81;93.20
4346;BME280;2186;49.866;7.986;2023-02-23T12:55:29;99955.56;;;13.83;92.41
4346;BME280;2186;49.866;7.986;2023-02-23T12:58:11;99949.78;;;13.92;93.11
4346;BME280;2186;49.866;7.986;2023-02-23T13:00:50;99951.81;;;13.68;93.22
4346;BME280;2186;49.866;7.986;2023-02-23T13:03:46;99954.63;;;13.84;93.21
4346;BME280;2186;49.866;7.986;2023-02-23T13:09:50;99945.72;;;13.83;91.94
4346;BME280;2186;49.866;7.986;2023-02-23T13:12:45;99942.06;;;13.86;92.26
4346;BME280;2186;49.866;7.986;2023-02-23T13:18:23;99947.53;;;13.83;92.74
4346;BME280;2186;49.866;7.986;2023-02-23T13:26:17;99946.84;;;13.98;91.94
4346;BME280;2186;49.866;7.986;2023-02-23T13:29:00;99948.13;;;13.89;91.34
4346;BME280;2186;49.866;7.986;2023-02-23T13:31:31;99952.97;;;13.81;92.38
4346;BME280;2186;49.866;7.986;2023-02-23T13:34:00;99951.53;;;13.74;95.01
4346;BME280;2186;49.866;7.986;2023-02-23T13:36:30;99962.34;;;13.52;95.38
4346;BME280;2186;49.866;7.986;2023-02-23T13:45:03;99953.41;;;13.13;96.05
4346;BME280;2186;49.866;7.986;2023-02-23T13:50:49;99961.00;;;13.42;96.04
4346;BME280;2186;49.866;7.986;2023-02-23T13:56:05;99962.78;;;13.23;95.21
4346;BME280;2186;49.866;7.986;2023-02-23T13:58:34;99955.72;;;13.22;96.23
4346;BME280;2186;49.866;7.986;2023-02-23T14:01:08;99966.19;;;13.26;95.54
4346;BME280;2186;49.866;7.986;2023-02-23T14:03:40;99966.97;;;13.08;96.37
4346;BME280;2186;49.866;7.986;2023-02-23T14:06:11;99961.59;;;13.30;96.80
4346;BME280;2186;49.866;7.986;2023-02-23T14:08:41;99968.84;;;13.26;96.57
4346;BME280;2186;49.866;7.986;2023-02-23T14:11:08;99964.03;;;13.34;97.12
4346;BME280;2186;49.866;7.986;2023-02-23T14:13:40;99972.75;;;13.19;95.50
4346;BME280;2186;49.866;7.986;2023-02-23T14:16:25;99972.78;;;13.18;95.40
4346;BME280;2186;49.866;7.986;2023-02-23T14:21:44;99964.44;;;13.25;95.17
4346;BME280;2186;49.866;7.986;2023-02-23T14:24:20;99970.84;;;13.01;95.73
4346;BME280;2186;49.866;7.986;2023-02-23T14:29:28;99951.09;;;12.85;95.72
4346;BME280;2186;49.866;7.986;2023-02-23T14:32:47;99952.72;;;12.89;96.55
4346;BME280;2186;49.866;7.986;2023-02-23T14:40:13;99960.03;;;12.84;95.63
4346;BME280;2186;49.866;7.986;2023-02-23T14:42:45;99956.97;;;12.93;95.75
4346;BME280;2186;49.866;7.986;2023-02-23T14:45:23;99953.03;;;12.81;96.26
4346;BME280;2186;49.866;7.986;2023-02-23T14:47:55;99959.25;;;12.82;96.80
4346;BME280;2186;49.866;7.986;2023-02-23T14:50:27;99963.91;;;12.97;95.34
4346;BME280;2186;49.866;7.986;2023-02-23T14:52:55;99961.75;;;12.64;96.80
4346;BME280;2186;49.866;7.986;2023-02-23T14:55:30;99971.63;;;12.62;97.62
4346;BME280;2186;49.866;7.986;2023-02-23T14:57:58;99963.44;;;12.67;98.12
4346;BME280;2186;49.866;7.986;2023-02-23T15:00:25;99970.06;;;12.57;97.38
4346;BME280;2186;49.866;7.986;2023-02-23T15:02:55;99967.34;;;12.58;97.85
4346;BME280;2186;49.866;7.986;2023-02-23T15:05:33;99961.94;;;12.60;98.84
4346;BME280;2186;49.866;7.986;2023-02-23T15:08:05;99955.63;;;12.62;98.28
4346;BME280;2186;49.866;7.986;2023-02-23T15:10:33;99961.41;;;12.30;99.75
4346;BME280;2186;49.866;7.986;2023-02-23T15:13:07;99967.59;;;12.52;99.52
4346;BME280;2186;49.866;7.986;2023-02-23T15:15:35;99963.50;;;12.65;98.97